Time;durP1;ratioP1;P1;durP2;ratioP2;P2;SDS_P1;SDS_P2;PMS_P1;PMS_P2;Temp;Humidity;BMP_temperature;BMP_pressure;BME280_temperature;BME280_humidity;BME280_pressure;Samples;Min_cycle;Max_cycle;Signal;HPM_P1;HPM_P2
2023/02/26 00:07:52;;;;;;;10.90;6.70;;;;;;;0.21;92.11;97371.52;436996;1247;107607;-39
2023/02/26 00:17:57;;;;;;;6.40;4.30;;;;;;;0.15;91.80;97385.09;437003;1251;98812;-39
2023/02/26 00:28:04;;;;;;;9.40;4.30;;;;;;;0.14;91.65;97399.69;437041;1247;108898;-39
2023/02/26 00:38:11;;;;;;;9.30;5.70;;;;;;;0.12;91.52;97418.95;437014;1250;98935;-39
2023/02/26 00:48:34;;;;;;;14.30;7.10;;;;;;;-0.01;91.64;97432.60;436981;1251;112551;-40
2023/02/26 00:58:41;;;;;;;8.50;5.50;;;;;;;-0.09;91.06;97440.86;437233;1246;109344;-39
2023/02/26 01:08:50;;;;;;;6.50;4.50;;;;;;;-0.15;91.03;97458.19;437161;1253;99308;-40
2023/02/26 01:18:56;;;;;;;8.80;4.10;;;;;;;-0.16;90.93;97466.17;437201;1251;107833;-39
2023/02/26 01:29:02;;;;;;;11.70;5.60;;;;;;;-0.22;90.79;97483.39;437092;1250;99221;-39
2023/02/26 01:39:12;;;;;;;11.40;5.40;;;;;;;-0.28;90.68;97495.17;437154;1247;111619;-39
2023/02/26 01:49:21;;;;;;;9.70;5.20;;;;;;;-0.29;90.56;97504.44;437205;1251;107393;-40
2023/02/26 01:59:28;;;;;;;13.10;4.70;;;;;;;-0.29;90.46;97503.76;437220;1251;97982;-40
2023/02/26 02:09:36;;;;;;;10.50;5.90;;;;;;;-0.32;90.25;97515.41;437136;1246;108590;-40
2023/02/26 02:20:14;;;;;;;13.80;7.10;;;;;;;-0.36;90.30;97529.13;437759;1247;98452;-37
2023/02/26 02:40:43;;;;;;;8.60;4.00;;;;;;;-0.49;89.72;97561.80;435638;1248;107792;-39
2023/02/26 02:50:56;;;;;;;11.00;5.30;;;;;;;-0.49;89.80;97577.21;435551;1249;98818;-39
2023/02/26 03:01:09;;;;;;;9.50;5.80;;;;;;;-0.56;89.53;97585.70;435619;1253;111398;-39
2023/02/26 03:11:16;;;;;;;9.00;4.50;;;;;;;-0.69;89.34;97596.54;435754;1249;108733;-39
2023/02/26 03:21:29;;;;;;;6.60;5.20;;;;;;;-0.68;89.32;97616.67;435468;1252;99230;-40
2023/02/26 03:31:43;;;;;;;6.20;4.00;;;;;;;-0.66;89.37;97628.52;435168;1253;460993;-40
2023/02/26 03:41:56;;;;;;;7.90;5.50;;;;;;;-0.61;89.14;97637.70;435525;1254;99240;-40
2023/02/26 03:52:05;;;;;;;12.70;6.40;;;;;;;-0.71;89.24;97643.89;435542;1249;111870;-39
2023/02/26 04:02:16;;;;;;;8.30;5.40;;;;;;;-0.77;89.23;97647.49;435465;1255;107412;-39
2023/02/26 04:12:21;;;;;;;9.10;6.20;;;;;;;-0.74;89.25;97656.35;435475;1252;98678;-40
2023/02/26 04:22:28;;;;;;;10.90;5.60;;;;;;;-0.73;89.29;97665.39;435455;1253;111933;-39
2023/02/26 04:32:35;;;;;;;13.00;6.70;;;;;;;-0.77;89.34;97677.64;435397;1250;108392;-39
2023/02/26 04:42:42;;;;;;;7.40;4.20;;;;;;;-0.84;89.42;97690.82;435618;1249;98731;-40
2023/02/26 04:52:52;;;;;;;7.60;4.00;;;;;;;-0.82;89.07;97703.27;435480;1252;108333;-40
2023/02/26 05:02:59;;;;;;;6.30;3.50;;;;;;;-0.77;89.37;97710.71;435408;1250;98123;-40
2023/02/26 05:13:06;;;;;;;8.00;4.60;;;;;;;-0.74;89.23;97718.85;435290;1250;113852;-40
2023/02/26 05:23:14;;;;;;;8.10;3.80;;;;;;;-0.84;89.32;97737.38;435478;1250;107301;-40
2023/02/26 05:33:21;;;;;;;7.80;4.30;;;;;;;-0.85;89.21;97751.42;435393;1252;99243;-39
2023/02/26 05:43:29;;;;;;;7.00;4.50;;;;;;;-0.80;89.17;97770.02;435357;1252;107617;-40
2023/02/26 05:53:36;;;;;;;9.40;4.60;;;;;;;-0.76;89.22;97795.50;435396;1251;98352;-39
2023/02/26 06:03:43;;;;;;;9.20;5.70;;;;;;;-0.85;89.08;97818.58;435488;1253;111738;-41
2023/02/26 06:13:51;;;;;;;5.10;4.00;;;;;;;-0.82;88.93;97837.27;435367;1252;106971;-40
2023/02/26 06:23:58;;;;;;;6.40;4.10;;;;;;;-0.75;88.82;97854.77;435479;1250;99371;-39
2023/02/26 06:34:06;;;;;;;7.50;5.40;;;;;;;-0.68;89.01;97879.27;435694;1252;108465;-40
2023/02/26 06:44:12;;;;;;;11.10;6.40;;;;;;;-0.66;88.99;97891.48;435661;1252;99221;-40
2023/02/26 06:54:18;;;;;;;6.70;4.20;;;;;;;-0.71;89.07;97899.63;435786;1252;111301;-40
2023/02/26 07:04:25;;;;;;;3.50;3.20;;;;;;;-0.78;88.70;97923.79;435636;1249;106109;-40
2023/02/26 07:14:33;;;;;;;6.90;3.70;;;;;;;-0.81;88.81;97942.41;435767;1252;97981;-39
2023/02/26 07:24:40;;;;;;;8.30;6.40;;;;;;;-0.71;88.96;97948.27;435600;1252;106845;-40
2023/02/26 07:34:47;;;;;;;12.80;6.90;;;;;;;-0.57;88.86;97969.90;435710;1252;99217;-39
2023/02/26 07:44:54;;;;;;;8.30;5.00;;;;;;;-0.66;88.36;97986.66;435698;1252;111916;-40
2023/02/26 07:55:01;;;;;;;10.40;4.20;;;;;;;-0.73;87.86;98004.39;435657;1248;106243;-40
2023/02/26 08:05:09;;;;;;;6.40;3.60;;;;;;;-0.74;87.77;98021.69;435731;1252;99100;-39
2023/02/26 08:15:16;;;;;;;13.70;5.60;;;;;;;-0.71;87.81;98038.41;435725;1252;107791;-39
2023/02/26 08:35:29;;;;;;;14.00;5.70;;;;;;;-0.57;87.29;98064.58;435860;1250;112939;-39
2023/02/26 08:45:37;;;;;;;14.50;5.60;;;;;;;-0.51;86.95;98073.14;435717;1249;108655;-40
2023/02/26 08:55:47;;;;;;;11.30;5.60;;;;;;;-0.55;86.50;98084.64;435707;1253;99205;-41
2023/02/26 09:05:54;;;;;;;21.80;8.70;;;;;;;-0.56;86.84;98100.12;435705;1250;111888;-39
2023/02/26 09:16:01;;;;;;;8.40;4.40;;;;;;;-0.54;86.60;98114.84;435613;1249;108366;-40
2023/02/26 09:26:09;;;;;;;11.50;4.30;;;;;;;-0.44;86.35;98124.80;435831;1250;98505;-40
2023/02/26 09:36:16;;;;;;;14.50;6.60;;;;;;;-0.30;86.36;98133.42;435888;1252;109237;-40
2023/02/26 09:46:30;;;;;;;13.10;6.80;;;;;;;-0.14;85.99;98157.75;435683;1252;99337;-38
2023/02/26 09:56:38;;;;;;;12.10;6.40;;;;;;;0.03;85.40;98174.03;435743;1250;112293;-40
2023/02/26 10:06:44;;;;;;;7.80;3.90;;;;;;;0.25;84.87;98182.38;435761;1252;107888;-40
2023/02/26 10:16:49;;;;;;;9.20;4.60;;;;;;;0.41;84.31;98194.75;435768;1252;99250;-40
2023/02/26 10:27:04;;;;;;;34.10;13.10;;;;;;;0.22;83.35;98212.20;435802;1252;111534;-40
2023/02/26 10:37:11;;;;;;;6.70;3.70;;;;;;;0.06;82.65;98224.94;435747;1252;107562;-40
2023/02/26 10:47:17;;;;;;;19.80;7.90;;;;;;;0.17;82.99;98231.55;435838;1248;101401;-40
2023/02/26 10:57:28;;;;;;;10.50;4.80;;;;;;;0.41;82.96;98238.27;435980;1252;111318;-40
2023/02/26 11:27:53;;;;;;;11.00;5.20;;;;;;;0.58;81.89;98260.08;435908;1253;110292;-40
2023/02/26 11:38:02;;;;;;;14.70;6.40;;;;;;;0.49;81.24;98277.94;435874;1252;107076;-39
2023/02/26 11:48:19;;;;;;;19.70;10.80;;;;;;;0.53;81.34;98303.02;436167;1253;98009;-39
2023/02/26 11:58:34;;;;;;;8.20;4.40;;;;;;;0.60;81.26;98327.95;436043;1253;111101;-39
2023/02/26 12:08:41;;;;;;;7.30;3.90;;;;;;;0.43;80.92;98348.52;435900;1248;107801;-40
2023/02/26 12:18:51;;;;;;;4.90;2.70;;;;;;;0.43;80.62;98363.23;435946;1253;99256;-40
2023/02/26 12:29:27;;;;;;;10.20;5.10;;;;;;;0.63;80.93;98370.39;435810;1247;111115;-40
2023/02/26 12:39:36;;;;;;;17.60;7.00;;;;;;;0.57;81.09;98377.72;435875;1261;110621;-40
2023/02/26 12:50:06;;;;;;;26.60;10.50;;;;;;;0.45;81.32;98392.55;436070;1261;99196;-39
2023/02/26 13:00:19;;;;;;;14.60;7.00;;;;;;;0.36;81.30;98407.45;435851;1254;111960;-40
2023/02/26 13:10:27;;;;;;;12.00;5.60;;;;;;;0.22;81.14;98413.34;435848;1253;108307;-40
2023/02/26 13:20:37;;;;;;;9.90;5.50;;;;;;;0.09;80.48;98422.27;435963;1254;97972;-40
2023/02/26 13:30:49;;;;;;;11.60;5.30;;;;;;;0.16;80.28;98423.66;436059;1248;111339;-39
2023/02/26 13:40:57;;;;;;;8.50;4.90;;;;;;;0.28;80.32;98431.48;435990;1248;106800;-40
2023/02/26 13:51:02;;;;;;;10.80;5.80;;;;;;;0.24;80.34;98448.62;436146;1261;97989;-41
2023/02/26 14:01:08;;;;;;;17.90;7.50;;;;;;;0.15;80.34;98462.98;435978;1261;111967;-40
2023/02/26 14:11:44;;;;;;;11.90;4.60;;;;;;;0.17;80.39;98467.00;435982;1248;107516;-40
2023/02/26 14:21:50;;;;;;;14.50;6.30;;;;;;;0.33;80.32;98478.15;435766;1247;98805;-39
2023/02/26 14:32:05;;;;;;;5.00;3.10;;;;;;;0.51;80.52;98500.23;436121;1254;107027;-40
2023/02/26 14:42:13;;;;;;;14.50;6.00;;;;;;;0.45;79.44;98516.55;436098;1263;98820;-40
2023/02/26 14:52:44;;;;;;;15.00;6.00;;;;;;;0.39;79.42;98520.80;436035;1253;112763;-40
2023/02/26 15:02:55;;;;;;;9.10;4.10;;;;;;;0.36;79.49;98530.20;436008;1254;107469;-40
2023/02/26 15:13:06;;;;;;;7.90;4.10;;;;;;;0.29;79.28;98536.84;436106;1261;98843;-38
2023/02/26 15:23:16;;;;;;;8.80;4.20;;;;;;;0.23;77.97;98552.10;436053;1254;111615;-41
2023/02/26 15:33:25;;;;;;;8.50;4.00;;;;;;;0.14;78.02;98564.31;435762;1248;435640;-40
2023/02/26 15:43:31;;;;;;;;;;;;;;;0.10;78.11;98574.83;435935;1252;99246;-39
2023/02/26 15:53:41;;;;;;;29.60;11.20;;;;;;;0.05;78.25;98582.80;436110;1255;99260;-41
2023/02/26 16:03:50;;;;;;;41.90;12.40;;;;;;;0.02;78.45;98590.70;436092;1248;107679;-39
2023/02/26 16:13:58;;;;;;;23.10;9.20;;;;;;;0.01;78.26;98601.05;435957;1247;99256;-39
2023/02/26 16:34:22;;;;;;;88.40;33.10;;;;;;;0.10;78.72;98644.77;436908;1254;98028;-41
2023/02/26 16:44:36;;;;;;;61.00;25.70;;;;;;;0.04;78.72;98658.48;436197;1248;110643;-39
2023/02/26 16:54:49;;;;;;;70.60;28.10;;;;;;;-0.06;78.91;98676.66;436154;1253;107095;-40
2023/02/26 17:05:00;;;;;;;120.10;40.20;;;;;;;-0.15;78.88;98690.59;436225;1252;98806;-40
2023/02/26 17:25:28;;;;;;;65.30;27.00;;;;;;;-0.29;79.19;98712.63;436127;1252;109060;-39
2023/02/26 17:35:34;;;;;;;49.50;20.80;;;;;;;-0.34;79.48;98726.01;436116;1254;99247;-39
2023/02/26 17:45:42;;;;;;;49.10;22.30;;;;;;;-0.39;79.65;98733.44;436188;1254;111443;-40
2023/02/26 17:55:53;;;;;;;64.60;37.40;;;;;;;-0.36;79.56;98747.80;436089;1252;107184;-39
2023/02/26 18:06:01;;;;;;;24.50;11.60;;;;;;;-0.26;79.50;98756.36;436062;1252;98305;-39
2023/02/26 18:16:13;;;;;;;17.50;9.20;;;;;;;-0.37;79.98;98750.59;436098;1247;110732;-40
2023/02/26 18:26:22;;;;;;;30.90;14.40;;;;;;;-0.38;80.25;98756.59;436466;1248;107371;-40
2023/02/26 18:46:41;;;;;;;53.50;23.60;;;;;;;-0.53;80.63;98771.94;436128;1252;110030;-39
2023/02/26 18:56:48;;;;;;;39.80;18.10;;;;;;;-0.58;80.78;98781.53;436043;1247;107497;-41
2023/02/26 19:06:56;;;;;;;32.20;16.60;;;;;;;-0.57;80.95;98804.20;436038;1252;98022;-39
2023/02/26 19:17:04;;;;;;;33.40;14.70;;;;;;;-0.47;81.01;98817.10;435969;1252;108817;-39
2023/02/26 19:27:14;;;;;;;32.70;12.70;;;;;;;-0.37;81.15;98828.33;436136;1252;98853;-38
2023/02/26 19:37:22;;;;;;;24.90;11.30;;;;;;;-0.34;81.23;98849.36;436127;1252;110276;-40
2023/02/26 19:47:29;;;;;;;42.20;14.00;;;;;;;-0.40;81.21;98855.34;436178;1248;107149;-39
2023/02/26 20:07:43;;;;;;;30.00;15.50;;;;;;;-0.51;81.55;98885.67;436041;1252;110363;-39
2023/02/26 20:17:52;;;;;;;23.00;8.80;;;;;;;-0.51;81.38;98896.08;435992;1252;97984;-39
2023/02/26 20:27:59;;;;;;;28.10;11.00;;;;;;;-0.41;81.23;98905.27;435979;1247;112488;-40
2023/02/26 20:38:07;;;;;;;40.60;14.30;;;;;;;-0.32;81.31;98915.48;435977;1248;109402;-39
2023/02/26 20:48:14;;;;;;;25.00;10.60;;;;;;;-0.38;81.12;98918.13;436018;1252;98022;-39
2023/02/26 20:58:21;;;;;;;29.10;12.80;;;;;;;-0.49;81.13;98930.16;435976;1252;110294;-40
2023/02/26 21:08:26;;;;;;;34.40;13.10;;;;;;;-0.57;81.06;98939.26;435932;1250;108153;-40
2023/02/26 21:28:39;;;;;;;13.70;5.70;;;;;;;-0.63;80.81;98950.45;437301;1252;109519;-39
2023/02/26 21:38:47;;;;;;;23.20;7.20;;;;;;;-0.57;80.75;98967.37;435914;1247;99237;-39
2023/02/26 21:48:54;;;;;;;14.90;5.80;;;;;;;-0.55;80.87;98984.81;439175;1251;113001;-38
2023/02/26 21:59:01;;;;;;;18.80;6.10;;;;;;;-0.62;80.77;98984.09;436736;1252;107741;-40
2023/02/26 22:09:10;;;;;;;20.50;7.60;;;;;;;-0.70;80.85;98987.44;438019;1247;99221;-40
2023/02/26 22:19:17;;;;;;;13.70;5.10;;;;;;;-0.70;80.80;98991.48;436812;1252;110117;-41
2023/02/26 22:29:24;;;;;;;9.40;4.00;;;;;;;-0.58;80.62;99003.13;437351;1252;108434;-42
2023/02/26 22:49:39;;;;;;;16.70;6.60;;;;;;;-0.56;80.78;99014.84;436390;1249;99280;-40
2023/02/26 22:59:46;;;;;;;15.70;6.80;;;;;;;-0.63;80.64;99023.42;435887;1252;111855;-40
2023/02/26 23:09:54;;;;;;;14.90;6.80;;;;;;;-0.68;80.53;99030.04;435819;1247;108509;-40
2023/02/26 23:20:00;;;;;;;17.30;6.70;;;;;;;-0.74;80.60;99037.81;435789;1252;97988;-39
2023/02/26 23:30:09;;;;;;;12.40;5.20;;;;;;;-0.73;80.44;99044.02;435727;1251;112558;-38
2023/02/26 23:40:16;;;;;;;14.30;5.80;;;;;;;-0.66;80.43;99054.18;435681;1252;107228;-39
